^^
Station Historical Data
Daily Summary for January 11, 2019 Units:  Both    English   Metric
« Previous Day
Next Day »
Daily Weekly Monthly Yearly Custom
  High: Low: Average:
Temperature: 20.1 °F /  -6.6 °C 10.2 °F /  -12.1 °C 14.4 °F /  -9.8 °C
Dew Point: 16.7 °F /  -8.5 °C 7.1 °F /  -13.8 °C 10.5 °F /  -11.9 °C
Humidity: 90% 73% 84%
Wind Speed: 14.0mph /  22.5km/h - 5.7mph /  9.2km/h
Wind Gust: 15.0mph /  24.1km/h - -
Wind- - SSW
Pressure: 30.40 in /  1029.3 hPa 30.07 in /  1018.2 hPa -
Precipitation: 0.00 in /  0 mm    
Historical Graphs
 
 
Tabular Data for January 11, 2019
Time Temperature Dew Point Pressure Wind Wind Speed Wind Gust Humidity Rainfall Rate (Hourly) solar Conditions
00:04 19.4 °F /  -7 °C 15.6 °F /  -9.1 °C 30.07in /  1018.2hPa Calm     85% 0.00in /  0mm 0.00 W/m2
00:09 19.5 °F /  -6.9 °C 15.7 °F /  -9.1 °C 30.08in /  1018.5hPa Calm     85% 0.00in /  0mm 0.00 W/m2
00:14 19.7 °F /  -6.8 °C 15.9 °F /  -8.9 °C 30.08in /  1018.5hPa Calm     85% 0.00in /  0mm 0.00 W/m2
00:19 19.8 °F /  -6.8 °C 16.3 °F /  -8.7 °C 30.08in /  1018.5hPa Calm     86% 0.00in /  0mm 0.00 W/m2
00:24 20.1 °F /  -6.6 °C 16.3 °F /  -8.7 °C 30.08in /  1018.5hPa ESE 1.0mph /  1.6km/h 2.0mph /  3.2km/h 85% 0.00in /  0mm 0.00 W/m2
00:29 20.0 °F /  -6.7 °C 16.2 °F /  -8.8 °C 30.07in /  1018.2hPa ESE 2.0mph /  3.2km/h 3.0mph /  4.8km/h 85% 0.00in /  0mm 0.00 W/m2
00:34 19.6 °F /  -6.9 °C 15.6 °F /  -9.1 °C 30.08in /  1018.5hPa ESE 3.0mph /  4.8km/h 3.0mph /  4.8km/h 84% 0.00in /  0mm 0.00 W/m2
00:39 19.0 °F /  -7.2 °C 15.0 °F /  -9.4 °C 30.08in /  1018.5hPa ESE 3.0mph /  4.8km/h 3.0mph /  4.8km/h 84% 0.00in /  0mm 0.00 W/m2
00:44 18.9 °F /  -7.3 °C 15.1 °F /  -9.4 °C 30.08in /  1018.5hPa ESE 1.0mph /  1.6km/h 3.0mph /  4.8km/h 85% 0.00in /  0mm 0.00 W/m2
00:49 19.4 °F /  -7 °C 15.9 °F /  -8.9 °C 30.08in /  1018.5hPa ESE 1.0mph /  1.6km/h 3.0mph /  4.8km/h 86% 0.00in /  0mm 0.00 W/m2
00:54 19.7 °F /  -6.8 °C 15.9 °F /  -8.9 °C 30.08in /  1018.5hPa Calm   2.0mph /  3.2km/h 85% 0.00in /  0mm 0.00 W/m2
00:59 19.3 °F /  -7.1 °C 15.3 °F /  -9.3 °C 30.08in /  1018.5hPa Calm   2.0mph /  3.2km/h 84% 0.00in /  0mm 0.00 W/m2
01:04 18.7 °F /  -7.4 °C 14.7 °F /  -9.6 °C 30.09in /  1018.8hPa Calm     84% 0.00in /  0mm 0.00 W/m2
01:09 18.2 °F /  -7.7 °C 14.2 °F /  -9.9 °C 30.09in /  1018.8hPa Calm     84% 0.00in /  0mm 0.00 W/m2
01:14 18.2 °F /  -7.7 °C 14.7 °F /  -9.6 °C 30.09in /  1018.8hPa Calm     86% 0.00in /  0mm 0.00 W/m2
01:19 19.0 °F /  -7.2 °C 15.8 °F /  -9 °C 30.09in /  1018.8hPa Calm   1.0mph /  1.6km/h 87% 0.00in /  0mm 0.00 W/m2
01:24 19.6 °F /  -6.9 °C 16.4 °F /  -8.7 °C 30.09in /  1018.8hPa Calm   1.0mph /  1.6km/h 87% 0.00in /  0mm 0.00 W/m2
01:29 19.8 °F /  -6.8 °C 16.6 °F /  -8.6 °C 30.09in /  1018.8hPa Calm     87% 0.00in /  0mm 0.00 W/m2
01:34 19.9 °F /  -6.7 °C 16.7 °F /  -8.5 °C 30.09in /  1018.8hPa Calm     87% 0.00in /  0mm 0.00 W/m2
01:39 19.9 °F /  -6.7 °C 16.4 °F /  -8.7 °C 30.09in /  1018.8hPa Calm     86% 0.00in /  0mm 0.00 W/m2
01:44 19.8 °F /  -6.8 °C 16.3 °F /  -8.7 °C 30.09in /  1018.8hPa ESE 1.0mph /  1.6km/h 2.0mph /  3.2km/h 86% 0.00in /  0mm 0.00 W/m2
01:49 19.7 °F /  -6.8 °C 16.2 °F /  -8.8 °C 30.09in /  1018.8hPa ESE 4.0mph /  6.4km/h 4.0mph /  6.4km/h 86% 0.00in /  0mm 0.00 W/m2
01:54 19.4 °F /  -7 °C 15.9 °F /  -8.9 °C 30.09in /  1018.8hPa ESE 2.0mph /  3.2km/h 4.0mph /  6.4km/h 86% 0.00in /  0mm 0.00 W/m2
01:59 19.2 °F /  -7.1 °C 15.7 °F /  -9.1 °C 30.10in /  1019.2hPa ESE 1.0mph /  1.6km/h 4.0mph /  6.4km/h 86% 0.00in /  0mm 0.00 W/m2
02:04 18.7 °F /  -7.4 °C 14.9 °F /  -9.5 °C 30.10in /  1019.2hPa Calm   3.0mph /  4.8km/h 85% 0.00in /  0mm 0.00 W/m2
02:09 18.4 °F /  -7.6 °C 14.6 °F /  -9.7 °C 30.10in /  1019.2hPa Calm   1.0mph /  1.6km/h 85% 0.00in /  0mm 0.00 W/m2
02:14 18.2 °F /  -7.7 °C 14.7 °F /  -9.6 °C 30.10in /  1019.2hPa Calm     86% 0.00in /  0mm 0.00 W/m2
02:19 18.1 °F /  -7.7 °C 14.6 °F /  -9.7 °C 30.10in /  1019.2hPa Calm     86% 0.00in /  0mm 0.00 W/m2
02:24 18.2 °F /  -7.7 °C 15.0 °F /  -9.4 °C 30.10in /  1019.2hPa ESE 3.0mph /  4.8km/h 3.0mph /  4.8km/h 87% 0.00in /  0mm 0.00 W/m2
02:29 18.2 °F /  -7.7 °C 15.0 °F /  -9.4 °C 30.11in /  1019.5hPa North 4.0mph /  6.4km/h 5.0mph /  8km/h 87% 0.00in /  0mm 0.00 W/m2
02:34 18.2 °F /  -7.7 °C 15.0 °F /  -9.4 °C 30.11in /  1019.5hPa North 1.0mph /  1.6km/h 5.0mph /  8km/h 87% 0.00in /  0mm 0.00 W/m2
02:39 18.2 °F /  -7.7 °C 15.0 °F /  -9.4 °C 30.11in /  1019.5hPa North 2.0mph /  3.2km/h 4.0mph /  6.4km/h 87% 0.00in /  0mm 0.00 W/m2
02:44 18.1 °F /  -7.7 °C 14.9 °F /  -9.5 °C 30.11in /  1019.5hPa North 2.0mph /  3.2km/h 3.0mph /  4.8km/h 87% 0.00in /  0mm 0.00 W/m2
02:49 18.0 °F /  -7.8 °C 14.8 °F /  -9.6 °C 30.11in /  1019.5hPa North 3.0mph /  4.8km/h 3.0mph /  4.8km/h 87% 0.00in /  0mm 0.00 W/m2
02:54 18.0 °F /  -7.8 °C 14.8 °F /  -9.6 °C 30.11in /  1019.5hPa North 3.0mph /  4.8km/h 3.0mph /  4.8km/h 87% 0.00in /  0mm 0.00 W/m2
02:59 18.2 °F /  -7.7 °C 15.2 °F /  -9.3 °C 30.11in /  1019.5hPa North 3.0mph /  4.8km/h 4.0mph /  6.4km/h 88% 0.00in /  0mm 0.00 W/m2
03:04 18.3 °F /  -7.6 °C 15.3 °F /  -9.3 °C 30.11in /  1019.5hPa North 2.0mph /  3.2km/h 4.0mph /  6.4km/h 88% 0.00in /  0mm 0.00 W/m2
03:09 18.4 °F /  -7.6 °C 15.2 °F /  -9.3 °C 30.11in /  1019.5hPa North 3.0mph /  4.8km/h 4.0mph /  6.4km/h 87% 0.00in /  0mm 0.00 W/m2
03:14 18.5 °F /  -7.5 °C 15.3 °F /  -9.3 °C 30.11in /  1019.5hPa North 2.0mph /  3.2km/h 4.0mph /  6.4km/h 87% 0.00in /  0mm 0.00 W/m2
03:19 18.5 °F /  -7.5 °C 15.3 °F /  -9.3 °C 30.11in /  1019.5hPa North 3.0mph /  4.8km/h 4.0mph /  6.4km/h 87% 0.00in /  0mm 0.00 W/m2
03:24 18.5 °F /  -7.5 °C 15.3 °F /  -9.3 °C 30.11in /  1019.5hPa North 2.0mph /  3.2km/h 4.0mph /  6.4km/h 87% 0.00in /  0mm 0.00 W/m2
03:29 18.5 °F /  -7.5 °C 15.3 °F /  -9.3 °C 30.11in /  1019.5hPa North 2.0mph /  3.2km/h 4.0mph /  6.4km/h 87% 0.00in /  0mm 0.00 W/m2
03:34 18.5 °F /  -7.5 °C 15.3 °F /  -9.3 °C 30.11in /  1019.5hPa North 2.0mph /  3.2km/h 3.0mph /  4.8km/h 87% 0.00in /  0mm 0.00 W/m2
03:39 18.5 °F /  -7.5 °C 15.3 °F /  -9.3 °C 30.11in /  1019.5hPa North 2.0mph /  3.2km/h 3.0mph /  4.8km/h 87% 0.00in /  0mm 0.00 W/m2
03:44 18.4 °F /  -7.6 °C 15.2 °F /  -9.3 °C 30.11in /  1019.5hPa North 4.0mph /  6.4km/h 4.0mph /  6.4km/h 87% 0.00in /  0mm 0.00 W/m2
03:49 17.9 °F /  -7.8 °C 14.7 °F /  -9.6 °C 30.11in /  1019.5hPa North 4.0mph /  6.4km/h 5.0mph /  8km/h 87% 0.00in /  0mm 0.00 W/m2
03:54 17.5 °F /  -8.1 °C 14.3 °F /  -9.8 °C 30.11in /  1019.5hPa North 1.0mph /  1.6km/h 5.0mph /  8km/h 87% 0.00in /  0mm 0.00 W/m2
03:59 17.3 °F /  -8.2 °C 14.1 °F /  -9.9 °C 30.11in /  1019.5hPa North 2.0mph /  3.2km/h 5.0mph /  8km/h 87% 0.00in /  0mm 0.00 W/m2
04:04 17.3 °F /  -8.2 °C 14.1 °F /  -9.9 °C 30.11in /  1019.5hPa North 3.0mph /  4.8km/h 4.0mph /  6.4km/h 87% 0.00in /  0mm 0.00 W/m2
04:09 17.2 °F /  -8.2 °C 14.0 °F /  -10 °C 30.11in /  1019.5hPa North 3.0mph /  4.8km/h 4.0mph /  6.4km/h 87% 0.00in /  0mm 0.00 W/m2
04:14 17.0 °F /  -8.3 °C 13.8 °F /  -10.1 °C 30.11in /  1019.5hPa North 1.0mph /  1.6km/h 4.0mph /  6.4km/h 87% 0.00in /  0mm 0.00 W/m2
04:19 17.0 °F /  -8.3 °C 14.1 °F /  -9.9 °C 30.11in /  1019.5hPa North 2.0mph /  3.2km/h 3.0mph /  4.8km/h 88% 0.00in /  0mm 0.00 W/m2
04:24 17.4 °F /  -8.1 °C 14.5 °F /  -9.7 °C 30.11in /  1019.5hPa North 3.0mph /  4.8km/h 4.0mph /  6.4km/h 88% 0.00in /  0mm 0.00 W/m2
04:29 17.7 °F /  -7.9 °C 15.0 °F /  -9.4 °C 30.11in /  1019.5hPa North 3.0mph /  4.8km/h 5.0mph /  8km/h 89% 0.00in /  0mm 0.00 W/m2
04:34 17.7 °F /  -7.9 °C 14.8 °F /  -9.6 °C 30.11in /  1019.5hPa North 5.0mph /  8km/h 6.0mph /  9.7km/h 88% 0.00in /  0mm 0.00 W/m2
04:39 18.0 °F /  -7.8 °C 15.3 °F /  -9.3 °C 30.11in /  1019.5hPa North 3.0mph /  4.8km/h 6.0mph /  9.7km/h 89% 0.00in /  0mm 0.00 W/m2
04:44 17.9 °F /  -7.8 °C 14.9 °F /  -9.5 °C 30.11in /  1019.5hPa North 3.0mph /  4.8km/h 6.0mph /  9.7km/h 88% 0.00in /  0mm 0.00 W/m2
04:49 17.6 °F /  -8 °C 14.7 °F /  -9.6 °C 30.12in /  1019.9hPa North 2.0mph /  3.2km/h 5.0mph /  8km/h 88% 0.00in /  0mm 0.00 W/m2
04:54 17.2 °F /  -8.2 °C 14.3 °F /  -9.8 °C 30.11in /  1019.5hPa North 2.0mph /  3.2km/h 5.0mph /  8km/h 88% 0.00in /  0mm 0.00 W/m2
04:59 17.0 °F /  -8.3 °C 14.1 °F /  -9.9 °C 30.12in /  1019.9hPa North 3.0mph /  4.8km/h 3.0mph /  4.8km/h 88% 0.00in /  0mm 0.00 W/m2
05:04 16.5 °F /  -8.6 °C 13.3 °F /  -10.4 °C 30.12in /  1019.9hPa North 3.0mph /  4.8km/h 4.0mph /  6.4km/h 87% 0.00in /  0mm 0.00 W/m2
05:09 16.0 °F /  -8.9 °C 13.1 °F /  -10.5 °C 30.12in /  1019.9hPa NW 6.0mph /  9.7km/h 7.0mph /  11.3km/h 88% 0.00in /  0mm 0.00 W/m2
05:14 15.3 °F /  -9.3 °C 12.1 °F /  -11.1 °C 30.13in /  1020.2hPa NNW 6.0mph /  9.7km/h 8.0mph /  12.9km/h 87% 0.00in /  0mm 0.00 W/m2
05:19 14.4 °F /  -9.8 °C 11.2 °F /  -11.6 °C 30.13in /  1020.2hPa NNW 6.0mph /  9.7km/h 8.0mph /  12.9km/h 87% 0.00in /  0mm 0.00 W/m2
05:24 13.8 °F /  -10.1 °C 10.6 °F /  -11.9 °C 30.13in /  1020.2hPa NNW 4.0mph /  6.4km/h 8.0mph /  12.9km/h 87% 0.00in /  0mm 0.00 W/m2
05:29 13.5 °F /  -10.3 °C 10.6 °F /  -11.9 °C 30.13in /  1020.2hPa NNW 4.0mph /  6.4km/h 7.0mph /  11.3km/h 88% 0.00in /  0mm 0.00 W/m2
05:34 13.5 °F /  -10.3 °C 10.9 °F /  -11.7 °C 30.12in /  1019.9hPa North 4.0mph /  6.4km/h 6.0mph /  9.7km/h 89% 0.00in /  0mm 0.00 W/m2
05:39 13.7 °F /  -10.2 °C 11.1 °F /  -11.6 °C 30.12in /  1019.9hPa NNE 6.0mph /  9.7km/h 6.0mph /  9.7km/h 89% 0.00in /  0mm 0.00 W/m2
05:44 14.3 °F /  -9.8 °C 11.9 °F /  -11.2 °C 30.12in /  1019.9hPa NNE 3.0mph /  4.8km/h 8.0mph /  12.9km/h 90% 0.00in /  0mm 0.00 W/m2
05:49 14.8 °F /  -9.6 °C 12.4 °F /  -10.9 °C 30.12in /  1019.9hPa NNE 5.0mph /  8km/h 8.0mph /  12.9km/h 90% 0.00in /  0mm 0.00 W/m2
05:54 15.0 °F /  -9.4 °C 12.6 °F /  -10.8 °C 30.13in /  1020.2hPa North 5.0mph /  8km/h 6.0mph /  9.7km/h 90% 0.00in /  0mm 0.00 W/m2
05:59 15.1 °F /  -9.4 °C 12.7 °F /  -10.7 °C 30.12in /  1019.9hPa North 7.0mph /  11.3km/h 7.0mph /  11.3km/h 90% 0.00in /  0mm 0.00 W/m2
06:04 15.2 °F /  -9.3 °C 12.8 °F /  -10.7 °C 30.12in /  1019.9hPa North 7.0mph /  11.3km/h 8.0mph /  12.9km/h 90% 0.00in /  0mm 0.00 W/m2
06:09 15.2 °F /  -9.3 °C 12.8 °F /  -10.7 °C 30.13in /  1020.2hPa North 4.0mph /  6.4km/h 9.0mph /  14.5km/h 90% 0.00in /  0mm 0.00 W/m2
06:14 15.2 °F /  -9.3 °C 12.8 °F /  -10.7 °C 30.13in /  1020.2hPa North 5.0mph /  8km/h 9.0mph /  14.5km/h 90% 0.00in /  0mm 0.00 W/m2
06:19 15.1 °F /  -9.4 °C 12.7 °F /  -10.7 °C 30.13in /  1020.2hPa NNE 5.0mph /  8km/h 10.0mph /  16.1km/h 90% 0.00in /  0mm 0.00 W/m2
06:24 15.0 °F /  -9.4 °C 12.6 °F /  -10.8 °C 30.13in /  1020.2hPa North 5.0mph /  8km/h 10.0mph /  16.1km/h 90% 0.00in /  0mm 0.00 W/m2
06:29 14.9 °F /  -9.5 °C 12.2 °F /  -11 °C 30.13in /  1020.2hPa North 7.0mph /  11.3km/h 9.0mph /  14.5km/h 89% 0.00in /  0mm 0.00 W/m2
06:34 14.7 °F /  -9.6 °C 12.0 °F /  -11.1 °C 30.14in /  1020.5hPa North 9.0mph /  14.5km/h 11.0mph /  17.7km/h 89% 0.00in /  0mm 0.00 W/m2
06:39 14.6 °F /  -9.7 °C 11.9 °F /  -11.2 °C 30.14in /  1020.5hPa North 8.0mph /  12.9km/h 11.0mph /  17.7km/h 89% 0.00in /  0mm 0.00 W/m2
06:44 14.4 °F /  -9.8 °C 11.8 °F /  -11.2 °C 30.14in /  1020.5hPa North 9.0mph /  14.5km/h 11.0mph /  17.7km/h 89% 0.00in /  0mm 0.00 W/m2
06:49 14.1 °F /  -9.9 °C 11.5 °F /  -11.4 °C 30.14in /  1020.5hPa NNW 4.0mph /  6.4km/h 11.0mph /  17.7km/h 89% 0.00in /  0mm 0.00 W/m2
06:54 13.5 °F /  -10.3 °C 10.6 °F /  -11.9 °C 30.15in /  1020.9hPa NNW 8.0mph /  12.9km/h 9.0mph /  14.5km/h 88% 0.00in /  0mm 0.00 W/m2
06:59 13.1 °F /  -10.5 °C 10.2 °F /  -12.1 °C 30.15in /  1020.9hPa NNW 8.0mph /  12.9km/h 10.0mph /  16.1km/h 88% 0.00in /  0mm 0.00 W/m2
07:04 12.8 °F /  -10.7 °C 9.9 °F /  -12.3 °C 30.15in /  1020.9hPa NNW 7.0mph /  11.3km/h 12.0mph /  19.3km/h 88% 0.00in /  0mm 0.00 W/m2
07:09 12.7 °F /  -10.7 °C 9.8 °F /  -12.3 °C 30.15in /  1020.9hPa North 9.0mph /  14.5km/h 12.0mph /  19.3km/h 88% 0.00in /  0mm 0.00 W/m2
07:14 12.5 °F /  -10.8 °C 9.9 °F /  -12.3 °C 30.15in /  1020.9hPa North 10.0mph /  16.1km/h 12.0mph /  19.3km/h 89% 0.00in /  0mm 0.00 W/m2
07:19 12.5 °F /  -10.8 °C 9.9 °F /  -12.3 °C 30.15in /  1020.9hPa NNW 8.0mph /  12.9km/h 12.0mph /  19.3km/h 89% 0.00in /  0mm 0.00 W/m2
07:24 12.6 °F /  -10.8 °C 10.0 °F /  -12.2 °C 30.15in /  1020.9hPa NNW 7.0mph /  11.3km/h 12.0mph /  19.3km/h 89% 0.00in /  0mm 0.00 W/m2
07:29 12.5 °F /  -10.8 °C 9.6 °F /  -12.4 °C 30.15in /  1020.9hPa North 6.0mph /  9.7km/h 11.0mph /  17.7km/h 88% 0.00in /  0mm 0.00 W/m2
07:34 12.5 °F /  -10.8 °C 9.9 °F /  -12.3 °C 30.15in /  1020.9hPa North 8.0mph /  12.9km/h 9.0mph /  14.5km/h 89% 0.00in /  0mm 0.00 W/m2
07:39 12.4 °F /  -10.9 °C 9.5 °F /  -12.5 °C 30.15in /  1020.9hPa North 7.0mph /  11.3km/h 9.0mph /  14.5km/h 88% 0.00in /  0mm 0.00 W/m2
07:44 12.4 °F /  -10.9 °C 9.8 °F /  -12.3 °C 30.15in /  1020.9hPa North 6.0mph /  9.7km/h 9.0mph /  14.5km/h 89% 0.00in /  0mm 0.00 W/m2
07:49 12.3 °F /  -10.9 °C 9.4 °F /  -12.6 °C 30.16in /  1021.2hPa North 5.0mph /  8km/h 8.0mph /  12.9km/h 88% 0.00in /  0mm 0.00 W/m2
07:54 12.2 °F /  -11 °C 9.3 °F /  -12.6 °C 30.15in /  1020.9hPa North 1.0mph /  1.6km/h 7.0mph /  11.3km/h 88% 0.00in /  0mm 0.00 W/m2
07:59 12.1 °F /  -11.1 °C 9.2 °F /  -12.7 °C 30.15in /  1020.9hPa NE 2.0mph /  3.2km/h 6.0mph /  9.7km/h 88% 0.00in /  0mm 0.00 W/m2
08:04 12.1 °F /  -11.1 °C 9.2 °F /  -12.7 °C 30.15in /  1020.9hPa NNE 4.0mph /  6.4km/h 5.0mph /  8km/h 88% 0.00in /  0mm 0.00 W/m2
08:09 12.0 °F /  -11.1 °C 9.1 °F /  -12.7 °C 30.15in /  1020.9hPa NNE 2.0mph /  3.2km/h 5.0mph /  8km/h 88% 0.00in /  0mm 0.00 W/m2
08:14 11.9 °F /  -11.2 °C 9.0 °F /  -12.8 °C 30.16in /  1021.2hPa NE 1.0mph /  1.6km/h 5.0mph /  8km/h 88% 0.00in /  0mm 0.00 W/m2
08:19 11.8 °F /  -11.2 °C 8.9 °F /  -12.8 °C 30.16in /  1021.2hPa NE 3.0mph /  4.8km/h 7.0mph /  11.3km/h 88% 0.00in /  0mm 0.00 W/m2
08:24 11.6 °F /  -11.3 °C 8.5 °F /  -13.1 °C 30.17in /  1021.6hPa NNW 3.0mph /  4.8km/h 7.0mph /  11.3km/h 87% 0.00in /  0mm 5.00 W/m2
08:29 11.5 °F /  -11.4 °C 8.4 °F /  -13.1 °C 30.17in /  1021.6hPa North 5.0mph /  8km/h 8.0mph /  12.9km/h 87% 0.00in /  0mm 5.00 W/m2
08:34 11.4 °F /  -11.4 °C 8.3 °F /  -13.2 °C 30.18in /  1021.9hPa North 5.0mph /  8km/h 9.0mph /  14.5km/h 87% 0.00in /  0mm 9.00 W/m2
08:39 11.2 °F /  -11.6 °C 8.1 °F /  -13.3 °C 30.18in /  1021.9hPa North 5.0mph /  8km/h 9.0mph /  14.5km/h 87% 0.00in /  0mm 12.00 W/m2
08:44 11.1 °F /  -11.6 °C 8.0 °F /  -13.3 °C 30.18in /  1021.9hPa North 4.0mph /  6.4km/h 7.0mph /  11.3km/h 87% 0.00in /  0mm 18.00 W/m2
08:49 10.7 °F /  -11.8 °C 7.3 °F /  -13.7 °C 30.19in /  1022.2hPa NW 2.0mph /  3.2km/h 6.0mph /  9.7km/h 86% 0.00in /  0mm 19.00 W/m2
08:54 10.5 °F /  -11.9 °C 7.4 °F /  -13.7 °C 30.19in /  1022.2hPa NW 3.0mph /  4.8km/h 5.0mph /  8km/h 87% 0.00in /  0mm 25.00 W/m2
08:59 10.2 °F /  -12.1 °C 7.1 °F /  -13.8 °C 30.20in /  1022.6hPa NNW 7.0mph /  11.3km/h 8.0mph /  12.9km/h 87% 0.00in /  0mm 30.00 W/m2
09:04 10.3 °F /  -12.1 °C 7.2 °F /  -13.8 °C 30.20in /  1022.6hPa NNW 6.0mph /  9.7km/h 8.0mph /  12.9km/h 87% 0.00in /  0mm 33.00 W/m2
09:09 10.3 °F /  -12.1 °C 7.2 °F /  -13.8 °C 30.20in /  1022.6hPa North 6.0mph /  9.7km/h 8.0mph /  12.9km/h 87% 0.00in /  0mm 39.00 W/m2
09:14 10.3 °F /  -12.1 °C 7.2 °F /  -13.8 °C 30.20in /  1022.6hPa North 7.0mph /  11.3km/h 8.0mph /  12.9km/h 87% 0.00in /  0mm 46.00 W/m2
09:19 10.4 °F /  -12 °C 7.3 °F /  -13.7 °C 30.20in /  1022.6hPa NNW 8.0mph /  12.9km/h 8.0mph /  12.9km/h 87% 0.00in /  0mm 53.00 W/m2
09:24 10.7 °F /  -11.8 °C 7.6 °F /  -13.6 °C 30.20in /  1022.6hPa North 6.0mph /  9.7km/h 8.0mph /  12.9km/h 87% 0.00in /  0mm 81.00 W/m2
09:29 11.4 °F /  -11.4 °C 8.5 °F /  -13.1 °C 30.20in /  1022.6hPa North 10.0mph /  16.1km/h 11.0mph /  17.7km/h 88% 0.00in /  0mm 97.00 W/m2
09:34 11.8 °F /  -11.2 °C 8.7 °F /  -12.9 °C 30.21in /  1022.9hPa North 5.0mph /  8km/h 11.0mph /  17.7km/h 87% 0.00in /  0mm 105.00 W/m2
09:39 12.0 °F /  -11.1 °C 8.6 °F /  -13 °C 30.21in /  1022.9hPa North 5.0mph /  8km/h 11.0mph /  17.7km/h 86% 0.00in /  0mm 116.00 W/m2
09:44 12.4 °F /  -10.9 °C 9.0 °F /  -12.8 °C 30.21in /  1022.9hPa North 8.0mph /  12.9km/h 11.0mph /  17.7km/h 86% 0.00in /  0mm 134.00 W/m2
09:49 13.0 °F /  -10.6 °C 9.6 °F /  -12.4 °C 30.22in /  1023.2hPa NNW 7.0mph /  11.3km/h 11.0mph /  17.7km/h 86% 0.00in /  0mm 158.00 W/m2
09:54 13.4 °F /  -10.3 °C 9.5 °F /  -12.5 °C 30.22in /  1023.2hPa North 8.0mph /  12.9km/h 11.0mph /  17.7km/h 84% 0.00in /  0mm 186.00 W/m2
09:59 13.7 °F /  -10.2 °C 9.8 °F /  -12.3 °C 30.22in /  1023.2hPa NNE 4.0mph /  6.4km/h 12.0mph /  19.3km/h 84% 0.00in /  0mm 220.00 W/m2
10:04 14.4 °F /  -9.8 °C 10.2 °F /  -12.1 °C 30.23in /  1023.6hPa North 4.0mph /  6.4km/h 12.0mph /  19.3km/h 83% 0.00in /  0mm 253.00 W/m2
10:09 15.0 °F /  -9.4 °C 10.5 °F /  -11.9 °C 30.23in /  1023.6hPa North 8.0mph /  12.9km/h 10.0mph /  16.1km/h 82% 0.00in /  0mm 287.00 W/m2
10:14 15.3 °F /  -9.3 °C 10.5 °F /  -11.9 °C 30.23in /  1023.6hPa NNW 6.0mph /  9.7km/h 10.0mph /  16.1km/h 81% 0.00in /  0mm 329.00 W/m2
10:19 15.7 °F /  -9.1 °C 10.6 °F /  -11.9 °C 30.23in /  1023.6hPa NNE 7.0mph /  11.3km/h 10.0mph /  16.1km/h 80% 0.00in /  0mm 343.00 W/m2
10:24 16.2 °F /  -8.8 °C 10.8 °F /  -11.8 °C 30.23in /  1023.6hPa North 7.0mph /  11.3km/h 10.0mph /  16.1km/h 79% 0.00in /  0mm 341.00 W/m2
10:29 16.5 °F /  -8.6 °C 10.8 °F /  -11.8 °C 30.23in /  1023.6hPa North 7.0mph /  11.3km/h 10.0mph /  16.1km/h 78% 0.00in /  0mm 322.00 W/m2
10:34 16.8 °F /  -8.4 °C 11.1 °F /  -11.6 °C 30.23in /  1023.6hPa North 9.0mph /  14.5km/h 11.0mph /  17.7km/h 78% 0.00in /  0mm 316.00 W/m2
10:39 16.8 °F /  -8.4 °C 10.8 °F /  -11.8 °C 30.24in /  1023.9hPa North 3.0mph /  4.8km/h 11.0mph /  17.7km/h 77% 0.00in /  0mm 311.00 W/m2
10:44 16.9 °F /  -8.4 °C 10.9 °F /  -11.7 °C 30.23in /  1023.6hPa NNW 7.0mph /  11.3km/h 10.0mph /  16.1km/h 77% 0.00in /  0mm 315.00 W/m2
10:49 16.3 °F /  -8.7 °C 10.1 °F /  -12.2 °C 30.24in /  1023.9hPa North 4.0mph /  6.4km/h 10.0mph /  16.1km/h 76% 0.00in /  0mm 281.00 W/m2
10:54 15.5 °F /  -9.2 °C 9.3 °F /  -12.6 °C 30.24in /  1023.9hPa North 6.0mph /  9.7km/h 9.0mph /  14.5km/h 76% 0.00in /  0mm 155.00 W/m2
10:59 15.3 °F /  -9.3 °C 9.7 °F /  -12.4 °C 30.25in /  1024.3hPa North 7.0mph /  11.3km/h 10.0mph /  16.1km/h 78% 0.00in /  0mm 345.00 W/m2
11:04 16.0 °F /  -8.9 °C 10.6 °F /  -11.9 °C 30.25in /  1024.3hPa North 6.0mph /  9.7km/h 10.0mph /  16.1km/h 79% 0.00in /  0mm 436.00 W/m2
11:09 17.0 °F /  -8.3 °C 11.6 °F /  -11.3 °C 30.25in /  1024.3hPa North 7.0mph /  11.3km/h 10.0mph /  16.1km/h 79% 0.00in /  0mm 431.00 W/m2
11:14 17.5 °F /  -8.1 °C 11.5 °F /  -11.4 °C 30.25in /  1024.3hPa North 9.0mph /  14.5km/h 10.0mph /  16.1km/h 77% 0.00in /  0mm 468.00 W/m2
11:19 18.1 °F /  -7.7 °C 11.8 °F /  -11.2 °C 30.25in /  1024.3hPa NNE 10.0mph /  16.1km/h 13.0mph /  20.9km/h 76% 0.00in /  0mm 431.00 W/m2
11:24 18.2 °F /  -7.7 °C 11.6 °F /  -11.3 °C 30.24in /  1023.9hPa North 9.0mph /  14.5km/h 14.0mph /  22.5km/h 75% 0.00in /  0mm 299.00 W/m2
11:29 18.2 °F /  -7.7 °C 11.6 °F /  -11.3 °C 30.24in /  1023.9hPa NNE 11.0mph /  17.7km/h 14.0mph /  22.5km/h 75% 0.00in /  0mm 299.00 W/m2
11:34 17.8 °F /  -7.9 °C 10.9 °F /  -11.7 °C 30.25in /  1024.3hPa North 11.0mph /  17.7km/h 13.0mph /  20.9km/h 74% 0.00in /  0mm 178.00 W/m2
11:39 17.0 °F /  -8.3 °C 10.1 °F /  -12.2 °C 30.24in /  1023.9hPa NNE 10.0mph /  16.1km/h 12.0mph /  19.3km/h 74% 0.00in /  0mm 169.00 W/m2
11:44 16.2 °F /  -8.8 °C 9.4 °F /  -12.6 °C 30.24in /  1023.9hPa NNE 8.0mph /  12.9km/h 12.0mph /  19.3km/h 74% 0.00in /  0mm 171.00 W/m2
11:49 15.9 °F /  -8.9 °C 9.7 °F /  -12.4 °C 30.24in /  1023.9hPa NNE 5.0mph /  8km/h 12.0mph /  19.3km/h 76% 0.00in /  0mm 169.00 W/m2
11:54 15.6 °F /  -9.1 °C 9.4 °F /  -12.6 °C 30.24in /  1023.9hPa NNE 8.0mph /  12.9km/h 10.0mph /  16.1km/h 76% 0.00in /  0mm 162.00 W/m2
11:59 15.2 °F /  -9.3 °C 9.0 °F /  -12.8 °C 30.24in /  1023.9hPa NE 5.0mph /  8km/h 10.0mph /  16.1km/h 76% 0.00in /  0mm 155.00 W/m2
12:04 14.9 °F /  -9.5 °C 8.7 °F /  -12.9 °C 30.25in /  1024.3hPa North 7.0mph /  11.3km/h 9.0mph /  14.5km/h 76% 0.00in /  0mm 155.00 W/m2
12:09 14.6 °F /  -9.7 °C 8.7 °F /  -12.9 °C 30.25in /  1024.3hPa NNE 6.0mph /  9.7km/h 10.0mph /  16.1km/h 77% 0.00in /  0mm 179.00 W/m2
12:14 14.5 °F /  -9.7 °C 8.6 °F /  -13 °C 30.25in /  1024.3hPa NNE 8.0mph /  12.9km/h 10.0mph /  16.1km/h 77% 0.00in /  0mm 135.00 W/m2
12:19 14.2 °F /  -9.9 °C 8.3 °F /  -13.2 °C 30.25in /  1024.3hPa North 5.0mph /  8km/h 9.0mph /  14.5km/h 77% 0.00in /  0mm 253.00 W/m2
12:24 14.5 °F /  -9.7 °C 8.9 °F /  -12.8 °C 30.24in /  1023.9hPa NNW 6.0mph /  9.7km/h 9.0mph /  14.5km/h 78% 0.00in /  0mm 371.00 W/m2
12:29 15.1 °F /  -9.4 °C 9.5 °F /  -12.5 °C 30.24in /  1023.9hPa North 8.0mph /  12.9km/h 9.0mph /  14.5km/h 78% 0.00in /  0mm 387.00 W/m2
12:34 15.6 °F /  -9.1 °C 9.7 °F /  -12.4 °C 30.24in /  1023.9hPa North 4.0mph /  6.4km/h 9.0mph /  14.5km/h 77% 0.00in /  0mm 309.00 W/m2
12:39 15.7 °F /  -9.1 °C 9.5 °F /  -12.5 °C 30.25in /  1024.3hPa North 8.0mph /  12.9km/h 9.0mph /  14.5km/h 76% 0.00in /  0mm 316.00 W/m2
12:44 15.8 °F /  -9 °C 9.6 °F /  -12.4 °C 30.25in /  1024.3hPa NNE 8.0mph /  12.9km/h 10.0mph /  16.1km/h 76% 0.00in /  0mm 309.00 W/m2
12:49 15.5 °F /  -9.2 °C 9.0 °F /  -12.8 °C 30.25in /  1024.3hPa NNE 6.0mph /  9.7km/h 10.0mph /  16.1km/h 75% 0.00in /  0mm 158.00 W/m2
12:54 15.0 °F /  -9.4 °C 8.5 °F /  -13.1 °C 30.25in /  1024.3hPa NNE 8.0mph /  12.9km/h 10.0mph /  16.1km/h 75% 0.00in /  0mm 230.00 W/m2
12:59 15.0 °F /  -9.4 °C 8.8 °F /  -12.9 °C 30.25in /  1024.3hPa North 7.0mph /  11.3km/h 10.0mph /  16.1km/h 76% 0.00in /  0mm 320.00 W/m2
13:04 15.6 °F /  -9.1 °C 9.7 °F /  -12.4 °C 30.25in /  1024.3hPa NNE 8.0mph /  12.9km/h 10.0mph /  16.1km/h 77% 0.00in /  0mm 367.00 W/m2
13:09 16.0 °F /  -8.9 °C 9.8 °F /  -12.3 °C 30.25in /  1024.3hPa NNE 6.0mph /  9.7km/h 10.0mph /  16.1km/h 76% 0.00in /  0mm 274.00 W/m2
13:14 16.0 °F /  -8.9 °C 9.5 °F /  -12.5 °C 30.25in /  1024.3hPa NNE 5.0mph /  8km/h 10.0mph /  16.1km/h 75% 0.00in /  0mm 195.00 W/m2
13:19 15.9 °F /  -8.9 °C 9.4 °F /  -12.6 °C 30.26in /  1024.6hPa NNE 6.0mph /  9.7km/h 10.0mph /  16.1km/h 75% 0.00in /  0mm 292.00 W/m2
13:24 16.1 °F /  -8.8 °C 9.6 °F /  -12.4 °C 30.26in /  1024.6hPa NE 8.0mph /  12.9km/h 8.0mph /  12.9km/h 75% 0.00in /  0mm 213.00 W/m2
13:29 16.1 °F /  -8.8 °C 9.3 °F /  -12.6 °C 30.26in /  1024.6hPa NE 5.0mph /  8km/h 9.0mph /  14.5km/h 74% 0.00in /  0mm 341.00 W/m2
13:34 16.2 °F /  -8.8 °C 9.4 °F /  -12.6 °C 30.26in /  1024.6hPa North 5.0mph /  8km/h 9.0mph /  14.5km/h 74% 0.00in /  0mm 346.00 W/m2
13:39 16.5 °F /  -8.6 °C 10.0 °F /  -12.2 °C 30.26in /  1024.6hPa NNW 5.0mph /  8km/h 8.0mph /  12.9km/h 75% 0.00in /  0mm 341.00 W/m2
13:44 16.6 °F /  -8.6 °C 9.8 °F /  -12.3 °C 30.26in /  1024.6hPa NNW 6.0mph /  9.7km/h 9.0mph /  14.5km/h 74% 0.00in /  0mm 338.00 W/m2
13:49 16.2 °F /  -8.8 °C 9.1 °F /  -12.7 °C 30.26in /  1024.6hPa NNW 9.0mph /  14.5km/h 11.0mph /  17.7km/h 73% 0.00in /  0mm 334.00 W/m2
13:54 15.2 °F /  -9.3 °C 8.1 °F /  -13.3 °C 30.26in /  1024.6hPa North 9.0mph /  14.5km/h 11.0mph /  17.7km/h 73% 0.00in /  0mm 329.00 W/m2
13:59 14.7 °F /  -9.6 °C 8.2 °F /  -13.2 °C 30.26in /  1024.6hPa North 7.0mph /  11.3km/h 12.0mph /  19.3km/h 75% 0.00in /  0mm 323.00 W/m2
14:04 14.4 °F /  -9.8 °C 8.2 °F /  -13.2 °C 30.26in /  1024.6hPa NNW 8.0mph /  12.9km/h 12.0mph /  19.3km/h 76% 0.00in /  0mm 316.00 W/m2
14:09 14.5 °F /  -9.7 °C 8.3 °F /  -13.2 °C 30.26in /  1024.6hPa North 8.0mph /  12.9km/h 12.0mph /  19.3km/h 76% 0.00in /  0mm 315.00 W/m2
14:14 14.8 °F /  -9.6 °C 8.9 °F /  -12.8 °C 30.26in /  1024.6hPa NNW 10.0mph /  16.1km/h 13.0mph /  20.9km/h 77% 0.00in /  0mm 306.00 W/m2
14:19 15.0 °F /  -9.4 °C 9.1 °F /  -12.7 °C 30.27in /  1024.9hPa NNW 10.0mph /  16.1km/h 13.0mph /  20.9km/h 77% 0.00in /  0mm 301.00 W/m2
14:24 15.3 °F /  -9.3 °C 9.4 °F /  -12.6 °C 30.27in /  1024.9hPa North 9.0mph /  14.5km/h 13.0mph /  20.9km/h 77% 0.00in /  0mm 299.00 W/m2
14:29 15.5 °F /  -9.2 °C 9.3 °F /  -12.6 °C 30.27in /  1024.9hPa North 8.0mph /  12.9km/h 15.0mph /  24.1km/h 76% 0.00in /  0mm 288.00 W/m2
14:34 15.6 °F /  -9.1 °C 9.4 °F /  -12.6 °C 30.27in /  1024.9hPa NNW 12.0mph /  19.3km/h 15.0mph /  24.1km/h 76% 0.00in /  0mm 281.00 W/m2
14:39 15.4 °F /  -9.2 °C 9.2 °F /  -12.7 °C 30.27in /  1024.9hPa North 9.0mph /  14.5km/h 14.0mph /  22.5km/h 76% 0.00in /  0mm 272.00 W/m2
14:44 15.5 °F /  -9.2 °C 9.3 °F /  -12.6 °C 30.27in /  1024.9hPa North 10.0mph /  16.1km/h 13.0mph /  20.9km/h 76% 0.00in /  0mm 265.00 W/m2
14:49 15.0 °F /  -9.4 °C 8.8 °F /  -12.9 °C 30.27in /  1024.9hPa NNW 12.0mph /  19.3km/h 13.0mph /  20.9km/h 76% 0.00in /  0mm 258.00 W/m2
14:54 14.8 °F /  -9.6 °C 8.9 °F /  -12.8 °C 30.27in /  1024.9hPa NNW 12.0mph /  19.3km/h 14.0mph /  22.5km/h 77% 0.00in /  0mm 248.00 W/m2
14:59 14.9 °F /  -9.5 °C 9.3 °F /  -12.6 °C 30.27in /  1024.9hPa NNW 8.0mph /  12.9km/h 14.0mph /  22.5km/h 78% 0.00in /  0mm 236.00 W/m2
15:04 14.8 °F /  -9.6 °C 8.9 °F /  -12.8 °C 30.28in /  1025.3hPa NNW 9.0mph /  14.5km/h 13.0mph /  20.9km/h 77% 0.00in /  0mm 225.00 W/m2
15:09 15.1 °F /  -9.4 °C 9.5 °F /  -12.5 °C 30.28in /  1025.3hPa North 10.0mph /  16.1km/h 13.0mph /  20.9km/h 78% 0.00in /  0mm 213.00 W/m2
15:14 15.6 °F /  -9.1 °C 10.0 °F /  -12.2 °C 30.28in /  1025.3hPa North 7.0mph /  11.3km/h 13.0mph /  20.9km/h 78% 0.00in /  0mm 204.00 W/m2
15:19 15.9 °F /  -8.9 °C 10.0 °F /  -12.2 °C 30.28in /  1025.3hPa NNW 11.0mph /  17.7km/h 12.0mph /  19.3km/h 77% 0.00in /  0mm 193.00 W/m2
15:24 15.7 °F /  -9.1 °C 9.8 °F /  -12.3 °C 30.28in /  1025.3hPa NNW 8.0mph /  12.9km/h 12.0mph /  19.3km/h 77% 0.00in /  0mm 181.00 W/m2
15:29 15.9 °F /  -8.9 °C 10.0 °F /  -12.2 °C 30.28in /  1025.3hPa North 9.0mph /  14.5km/h 14.0mph /  22.5km/h 77% 0.00in /  0mm 169.00 W/m2
15:34 15.8 °F /  -9 °C 9.9 °F /  -12.3 °C 30.29in /  1025.6hPa NNW 8.0mph /  12.9km/h 14.0mph /  22.5km/h 77% 0.00in /  0mm 156.00 W/m2
15:39 16.0 °F /  -8.9 °C 10.1 °F /  -12.2 °C 30.29in /  1025.6hPa North 9.0mph /  14.5km/h 13.0mph /  20.9km/h 77% 0.00in /  0mm 144.00 W/m2
15:44 16.0 °F /  -8.9 °C 10.1 °F /  -12.2 °C 30.29in /  1025.6hPa NNE 8.0mph /  12.9km/h 14.0mph /  22.5km/h 77% 0.00in /  0mm 134.00 W/m2
15:49 15.8 °F /  -9 °C 9.6 °F /  -12.4 °C 30.29in /  1025.6hPa North 10.0mph /  16.1km/h 14.0mph /  22.5km/h 76% 0.00in /  0mm 123.00 W/m2
15:54 15.2 °F /  -9.3 °C 9.3 °F /  -12.6 °C 30.29in /  1025.6hPa NNW 9.0mph /  14.5km/h 13.0mph /  20.9km/h 77% 0.00in /  0mm 111.00 W/m2
15:59 15.0 °F /  -9.4 °C 9.4 °F /  -12.6 °C 30.30in /  1026hPa North 6.0mph /  9.7km/h 13.0mph /  20.9km/h 78% 0.00in /  0mm 100.00 W/m2
16:04 15.0 °F /  -9.4 °C 9.4 °F /  -12.6 °C 30.30in /  1026hPa NNW 7.0mph /  11.3km/h 12.0mph /  19.3km/h 78% 0.00in /  0mm 90.00 W/m2
16:09 14.5 °F /  -9.7 °C 8.9 °F /  -12.8 °C 30.30in /  1026hPa NNW 5.0mph /  8km/h 12.0mph /  19.3km/h 78% 0.00in /  0mm 77.00 W/m2
16:14 14.1 °F /  -9.9 °C 8.8 °F /  -12.9 °C 30.30in /  1026hPa NNW 5.0mph /  8km/h 12.0mph /  19.3km/h 79% 0.00in /  0mm 67.00 W/m2
16:19 13.9 °F /  -10.1 °C 8.9 °F /  -12.8 °C 30.31in /  1026.3hPa NNW 7.0mph /  11.3km/h 12.0mph /  19.3km/h 80% 0.00in /  0mm 63.00 W/m2
16:24 13.7 °F /  -10.2 °C 8.4 °F /  -13.1 °C 30.31in /  1026.3hPa NNW 9.0mph /  14.5km/h 12.0mph /  19.3km/h 79% 0.00in /  0mm 54.00 W/m2
16:29 13.6 °F /  -10.2 °C 8.6 °F /  -13 °C 30.31in /  1026.3hPa NNW 6.0mph /  9.7km/h 12.0mph /  19.3km/h 80% 0.00in /  0mm 44.00 W/m2
16:34 13.4 °F /  -10.3 °C 8.4 °F /  -13.1 °C 30.31in /  1026.3hPa NNW 9.0mph /  14.5km/h 11.0mph /  17.7km/h 80% 0.00in /  0mm 37.00 W/m2
16:39 13.3 °F /  -10.4 °C 8.3 °F /  -13.2 °C 30.31in /  1026.3hPa NNW 9.0mph /  14.5km/h 11.0mph /  17.7km/h 80% 0.00in /  0mm 32.00 W/m2
16:44 13.2 °F /  -10.4 °C 8.5 °F /  -13.1 °C 30.31in /  1026.3hPa NNW 9.0mph /  14.5km/h 11.0mph /  17.7km/h 81% 0.00in /  0mm 25.00 W/m2
16:49 12.9 °F /  -10.6 °C 7.9 °F /  -13.4 °C 30.31in /  1026.3hPa North 9.0mph /  14.5km/h 11.0mph /  17.7km/h 80% 0.00in /  0mm 21.00 W/m2
16:54 12.5 °F /  -10.8 °C 7.8 °F /  -13.4 °C 30.32in /  1026.6hPa NNW 9.0mph /  14.5km/h 11.0mph /  17.7km/h 81% 0.00in /  0mm 18.00 W/m2
16:59 12.1 °F /  -11.1 °C 7.4 °F /  -13.7 °C 30.32in /  1026.6hPa North 5.0mph /  8km/h 11.0mph /  17.7km/h 81% 0.00in /  0mm 19.00 W/m2
17:04 11.7 °F /  -11.3 °C 7.3 °F /  -13.7 °C 30.32in /  1026.6hPa NNW 8.0mph /  12.9km/h 12.0mph /  19.3km/h 82% 0.00in /  0mm 12.00 W/m2
17:09 11.5 °F /  -11.4 °C 7.1 °F /  -13.8 °C 30.32in /  1026.6hPa NW 9.0mph /  14.5km/h 12.0mph /  19.3km/h 82% 0.00in /  0mm 9.00 W/m2
17:14 11.3 °F /  -11.5 °C 7.1 °F /  -13.8 °C 30.32in /  1026.6hPa NNW 10.0mph /  16.1km/h 11.0mph /  17.7km/h 83% 0.00in /  0mm 5.00 W/m2
17:19 11.2 °F /  -11.6 °C 7.3 °F /  -13.7 °C 30.32in /  1026.6hPa North 10.0mph /  16.1km/h 14.0mph /  22.5km/h 84% 0.00in /  0mm 5.00 W/m2
17:24 11.2 °F /  -11.6 °C 7.3 °F /  -13.7 °C 30.32in /  1026.6hPa NNE 14.0mph /  22.5km/h 14.0mph /  22.5km/h 84% 0.00in /  0mm 0.00 W/m2
17:29 11.1 °F /  -11.6 °C 7.2 °F /  -13.8 °C 30.32in /  1026.6hPa North 11.0mph /  17.7km/h 14.0mph /  22.5km/h 84% 0.00in /  0mm 0.00 W/m2
17:34 11.1 °F /  -11.6 °C 7.5 °F /  -13.6 °C 30.33in /  1027hPa North 9.0mph /  14.5km/h 14.0mph /  22.5km/h 85% 0.00in /  0mm 0.00 W/m2
17:39 11.1 °F /  -11.6 °C 7.5 °F /  -13.6 °C 30.33in /  1027hPa North 9.0mph /  14.5km/h 13.0mph /  20.9km/h 85% 0.00in /  0mm 0.00 W/m2
17:44 11.1 °F /  -11.6 °C 7.5 °F /  -13.6 °C 30.33in /  1027hPa North 7.0mph /  11.3km/h 12.0mph /  19.3km/h 85% 0.00in /  0mm 0.00 W/m2
17:49 11.2 °F /  -11.6 °C 7.6 °F /  -13.6 °C 30.33in /  1027hPa NNE 10.0mph /  16.1km/h 12.0mph /  19.3km/h 85% 0.00in /  0mm 0.00 W/m2
17:54 11.2 °F /  -11.6 °C 7.8 °F /  -13.4 °C 30.34in /  1027.3hPa NNE 9.0mph /  14.5km/h 12.0mph /  19.3km/h 86% 0.00in /  0mm 0.00 W/m2
17:59 11.3 °F /  -11.5 °C 7.9 °F /  -13.4 °C 30.34in /  1027.3hPa NNE 6.0mph /  9.7km/h 11.0mph /  17.7km/h 86% 0.00in /  0mm 0.00 W/m2
18:04 11.3 °F /  -11.5 °C 7.9 °F /  -13.4 °C 30.34in /  1027.3hPa NNE 11.0mph /  17.7km/h 12.0mph /  19.3km/h 86% 0.00in /  0mm 0.00 W/m2
18:09 11.3 °F /  -11.5 °C 7.9 °F /  -13.4 °C 30.34in /  1027.3hPa NNE 11.0mph /  17.7km/h 12.0mph /  19.3km/h 86% 0.00in /  0mm 0.00 W/m2
18:14 11.3 °F /  -11.5 °C 7.9 °F /  -13.4 °C 30.34in /  1027.3hPa NNE 11.0mph /  17.7km/h 12.0mph /  19.3km/h 86% 0.00in /  0mm 0.00 W/m2
18:19 11.3 °F /  -11.5 °C 7.9 °F /  -13.4 °C 30.34in /  1027.3hPa NNE 11.0mph /  17.7km/h 12.0mph /  19.3km/h 86% 0.00in /  0mm 0.00 W/m2
18:24 11.3 °F /  -11.5 °C 7.9 °F /  -13.4 °C 30.34in /  1027.3hPa NE 8.0mph /  12.9km/h 14.0mph /  22.5km/h 86% 0.00in /  0mm 0.00 W/m2
18:29 11.3 °F /  -11.5 °C 8.2 °F /  -13.2 °C 30.34in /  1027.3hPa NNE 7.0mph /  11.3km/h 14.0mph /  22.5km/h 87% 0.00in /  0mm 0.00 W/m2
18:34 11.3 °F /  -11.5 °C 8.2 °F /  -13.2 °C 30.34in /  1027.3hPa NNE 11.0mph /  17.7km/h 12.0mph /  19.3km/h 87% 0.00in /  0mm 0.00 W/m2
18:39 11.4 °F /  -11.4 °C 8.3 °F /  -13.2 °C 30.34in /  1027.3hPa North 10.0mph /  16.1km/h 13.0mph /  20.9km/h 87% 0.00in /  0mm 0.00 W/m2
18:44 11.4 °F /  -11.4 °C 8.3 °F /  -13.2 °C 30.34in /  1027.3hPa NNE 11.0mph /  17.7km/h 14.0mph /  22.5km/h 87% 0.00in /  0mm 0.00 W/m2
18:49 11.4 °F /  -11.4 °C 8.3 °F /  -13.2 °C 30.34in /  1027.3hPa NNE 9.0mph /  14.5km/h 14.0mph /  22.5km/h 87% 0.00in /  0mm 0.00 W/m2
18:54 11.4 °F /  -11.4 °C 8.3 °F /  -13.2 °C 30.34in /  1027.3hPa NNE 7.0mph /  11.3km/h 15.0mph /  24.1km/h 87% 0.00in /  0mm 0.00 W/m2
18:59 11.3 °F /  -11.5 °C 8.2 °F /  -13.2 °C 30.34in /  1027.3hPa NNE 7.0mph /  11.3km/h 15.0mph /  24.1km/h 87% 0.00in /  0mm 0.00 W/m2
19:04 11.4 °F /  -11.4 °C 8.5 °F /  -13.1 °C 30.35in /  1027.7hPa NE 6.0mph /  9.7km/h 12.0mph /  19.3km/h 88% 0.00in /  0mm 0.00 W/m2
19:09 11.4 °F /  -11.4 °C 8.3 °F /  -13.2 °C 30.34in /  1027.3hPa NE 6.0mph /  9.7km/h 11.0mph /  17.7km/h 87% 0.00in /  0mm 0.00 W/m2
19:14 11.4 °F /  -11.4 °C 8.3 °F /  -13.2 °C 30.34in /  1027.3hPa NE 5.0mph /  8km/h 10.0mph /  16.1km/h 87% 0.00in /  0mm 0.00 W/m2
19:19 11.4 °F /  -11.4 °C 8.3 °F /  -13.2 °C 30.35in /  1027.7hPa NNE 7.0mph /  11.3km/h 10.0mph /  16.1km/h 87% 0.00in /  0mm 0.00 W/m2
19:24 11.5 °F /  -11.4 °C 8.6 °F /  -13 °C 30.35in /  1027.7hPa North 8.0mph /  12.9km/h 11.0mph /  17.7km/h 88% 0.00in /  0mm 0.00 W/m2
19:29 11.5 °F /  -11.4 °C 8.6 °F /  -13 °C 30.35in /  1027.7hPa NNE 8.0mph /  12.9km/h 12.0mph /  19.3km/h 88% 0.00in /  0mm 0.00 W/m2
19:34 11.5 °F /  -11.4 °C 8.4 °F /  -13.1 °C 30.35in /  1027.7hPa NNE 5.0mph /  8km/h 13.0mph /  20.9km/h 87% 0.00in /  0mm 0.00 W/m2
19:39 11.5 °F /  -11.4 °C 8.4 °F /  -13.1 °C 30.36in /  1028hPa NNE 5.0mph /  8km/h 13.0mph /  20.9km/h 87% 0.00in /  0mm 0.00 W/m2
19:44 11.4 °F /  -11.4 °C 8.5 °F /  -13.1 °C 30.36in /  1028hPa NNE 5.0mph /  8km/h 13.0mph /  20.9km/h 88% 0.00in /  0mm 0.00 W/m2
19:49 11.5 °F /  -11.4 °C 8.6 °F /  -13 °C 30.36in /  1028hPa NE 6.0mph /  9.7km/h 9.0mph /  14.5km/h 88% 0.00in /  0mm 0.00 W/m2
19:54 11.6 °F /  -11.3 °C 8.7 °F /  -12.9 °C 30.36in /  1028hPa NE 5.0mph /  8km/h 9.0mph /  14.5km/h 88% 0.00in /  0mm 0.00 W/m2
19:59 11.6 °F /  -11.3 °C 8.7 °F /  -12.9 °C 30.36in /  1028hPa NE 3.0mph /  4.8km/h 8.0mph /  12.9km/h 88% 0.00in /  0mm 0.00 W/m2
20:04 11.6 °F /  -11.3 °C 8.7 °F /  -12.9 °C 30.36in /  1028hPa NE 6.0mph /  9.7km/h 7.0mph /  11.3km/h 88% 0.00in /  0mm 0.00 W/m2
20:09 11.6 °F /  -11.3 °C 8.7 °F /  -12.9 °C 30.36in /  1028hPa NE 6.0mph /  9.7km/h 7.0mph /  11.3km/h 88% 0.00in /  0mm 0.00 W/m2
20:14 11.6 °F /  -11.3 °C 8.5 °F /  -13.1 °C 30.37in /  1028.3hPa North 5.0mph /  8km/h 7.0mph /  11.3km/h 87% 0.00in /  0mm 0.00 W/m2
20:19 11.6 °F /  -11.3 °C 8.7 °F /  -12.9 °C 30.37in /  1028.3hPa North 5.0mph /  8km/h 8.0mph /  12.9km/h 88% 0.00in /  0mm 0.00 W/m2
20:24 11.6 °F /  -11.3 °C 8.7 °F /  -12.9 °C 30.37in /  1028.3hPa NNE 7.0mph /  11.3km/h 10.0mph /  16.1km/h 88% 0.00in /  0mm 0.00 W/m2
20:29 11.6 °F /  -11.3 °C 8.7 °F /  -12.9 °C 30.37in /  1028.3hPa NNE 4.0mph /  6.4km/h 10.0mph /  16.1km/h 88% 0.00in /  0mm 0.00 W/m2
20:34 11.6 °F /  -11.3 °C 8.7 °F /  -12.9 °C 30.37in /  1028.3hPa North 7.0mph /  11.3km/h 9.0mph /  14.5km/h 88% 0.00in /  0mm 0.00 W/m2
20:39 11.5 °F /  -11.4 °C 8.6 °F /  -13 °C 30.38in /  1028.7hPa North 6.0mph /  9.7km/h 8.0mph /  12.9km/h 88% 0.00in /  0mm 0.00 W/m2
20:44 11.5 °F /  -11.4 °C 8.6 °F /  -13 °C 30.38in /  1028.7hPa North 6.0mph /  9.7km/h 8.0mph /  12.9km/h 88% 0.00in /  0mm 0.00 W/m2
20:49 11.5 °F /  -11.4 °C 8.6 °F /  -13 °C 30.38in /  1028.7hPa NNE 6.0mph /  9.7km/h 8.0mph /  12.9km/h 88% 0.00in /  0mm 0.00 W/m2
20:54 11.5 °F /  -11.4 °C 8.9 °F /  -12.8 °C 30.38in /  1028.7hPa North 7.0mph /  11.3km/h 8.0mph /  12.9km/h 89% 0.00in /  0mm 0.00 W/m2
20:59 11.4 °F /  -11.4 °C 8.8 °F /  -12.9 °C 30.38in /  1028.7hPa North 4.0mph /  6.4km/h 8.0mph /  12.9km/h 89% 0.00in /  0mm 0.00 W/m2
21:04 11.4 °F /  -11.4 °C 8.8 °F /  -12.9 °C 30.38in /  1028.7hPa NNW 6.0mph /  9.7km/h 8.0mph /  12.9km/h 89% 0.00in /  0mm 0.00 W/m2
21:09 11.3 °F /  -11.5 °C 8.7 °F /  -12.9 °C 30.38in /  1028.7hPa North 8.0mph /  12.9km/h 10.0mph /  16.1km/h 89% 0.00in /  0mm 0.00 W/m2
21:14 11.3 °F /  -11.5 °C 8.7 °F /  -12.9 °C 30.39in /  1029hPa North 5.0mph /  8km/h 10.0mph /  16.1km/h 89% 0.00in /  0mm 0.00 W/m2
21:19 11.2 °F /  -11.6 °C 8.6 °F /  -13 °C 30.39in /  1029hPa North 5.0mph /  8km/h 9.0mph /  14.5km/h 89% 0.00in /  0mm 0.00 W/m2
21:24 11.2 °F /  -11.6 °C 8.6 °F /  -13 °C 30.39in /  1029hPa NNE 5.0mph /  8km/h 9.0mph /  14.5km/h 89% 0.00in /  0mm 0.00 W/m2
21:29 11.2 °F /  -11.6 °C 8.6 °F /  -13 °C 30.39in /  1029hPa North 5.0mph /  8km/h 7.0mph /  11.3km/h 89% 0.00in /  0mm 0.00 W/m2
21:34 11.2 °F /  -11.6 °C 8.6 °F /  -13 °C 30.39in /  1029hPa North 3.0mph /  4.8km/h 6.0mph /  9.7km/h 89% 0.00in /  0mm 0.00 W/m2
21:39 11.2 °F /  -11.6 °C 8.6 °F /  -13 °C 30.39in /  1029hPa NNE 4.0mph /  6.4km/h 6.0mph /  9.7km/h 89% 0.00in /  0mm 0.00 W/m2
21:44 11.2 °F /  -11.6 °C 8.6 °F /  -13 °C 30.39in /  1029hPa North 5.0mph /  8km/h 6.0mph /  9.7km/h 89% 0.00in /  0mm 0.00 W/m2
21:49 11.2 °F /  -11.6 °C 8.6 °F /  -13 °C 30.39in /  1029hPa NNW 4.0mph /  6.4km/h 5.0mph /  8km/h 89% 0.00in /  0mm 0.00 W/m2
21:54 11.2 °F /  -11.6 °C 8.6 °F /  -13 °C 30.39in /  1029hPa NNE 6.0mph /  9.7km/h 8.0mph /  12.9km/h 89% 0.00in /  0mm 0.00 W/m2
21:59 11.2 °F /  -11.6 °C 8.6 °F /  -13 °C 30.39in /  1029hPa North 5.0mph /  8km/h 8.0mph /  12.9km/h 89% 0.00in /  0mm 0.00 W/m2
22:04 11.2 °F /  -11.6 °C 8.6 °F /  -13 °C 30.39in /  1029hPa North 6.0mph /  9.7km/h 7.0mph /  11.3km/h 89% 0.00in /  0mm 0.00 W/m2
22:09 11.2 °F /  -11.6 °C 8.6 °F /  -13 °C 30.39in /  1029hPa NNW 6.0mph /  9.7km/h 8.0mph /  12.9km/h 89% 0.00in /  0mm 0.00 W/m2
22:14 11.2 °F /  -11.6 °C 8.6 °F /  -13 °C 30.39in /  1029hPa North 5.0mph /  8km/h 8.0mph /  12.9km/h 89% 0.00in /  0mm 0.00 W/m2
22:19 11.2 °F /  -11.6 °C 8.6 °F /  -13 °C 30.40in /  1029.3hPa North 3.0mph /  4.8km/h 7.0mph /  11.3km/h 89% 0.00in /  0mm 0.00 W/m2
22:24 11.2 °F /  -11.6 °C 8.8 °F /  -12.9 °C 30.40in /  1029.3hPa North 6.0mph /  9.7km/h 8.0mph /  12.9km/h 90% 0.00in /  0mm 0.00 W/m2
22:29 11.2 °F /  -11.6 °C 8.8 °F /  -12.9 °C 30.40in /  1029.3hPa NNW 6.0mph /  9.7km/h 8.0mph /  12.9km/h 90% 0.00in /  0mm 0.00 W/m2
22:34 11.2 °F /  -11.6 °C 8.8 °F /  -12.9 °C 30.40in /  1029.3hPa North 5.0mph /  8km/h 7.0mph /  11.3km/h 90% 0.00in /  0mm 0.00 W/m2
22:39 11.2 °F /  -11.6 °C 8.8 °F /  -12.9 °C 30.39in /  1029hPa North 8.0mph /  12.9km/h 9.0mph /  14.5km/h 90% 0.00in /  0mm 0.00 W/m2
22:44 11.3 °F /  -11.5 °C 8.9 °F /  -12.8 °C 30.40in /  1029.3hPa NNE 4.0mph /  6.4km/h 9.0mph /  14.5km/h 90% 0.00in /  0mm 0.00 W/m2
22:49 11.3 °F /  -11.5 °C 8.9 °F /  -12.8 °C 30.40in /  1029.3hPa North 6.0mph /  9.7km/h 8.0mph /  12.9km/h 90% 0.00in /  0mm 0.00 W/m2
22:54 11.3 °F /  -11.5 °C 8.9 °F /  -12.8 °C 30.40in /  1029.3hPa North 5.0mph /  8km/h 8.0mph /  12.9km/h 90% 0.00in /  0mm 0.00 W/m2
22:59 11.3 °F /  -11.5 °C 8.9 °F /  -12.8 °C 30.40in /  1029.3hPa North 7.0mph /  11.3km/h 8.0mph /  12.9km/h 90% 0.00in /  0mm 0.00 W/m2
23:04 11.3 °F /  -11.5 °C 8.9 °F /  -12.8 °C 30.40in /  1029.3hPa NNW 5.0mph /  8km/h 8.0mph /  12.9km/h 90% 0.00in /  0mm 0.00 W/m2
23:09 11.3 °F /  -11.5 °C 8.9 °F /  -12.8 °C 30.40in /  1029.3hPa North 4.0mph /  6.4km/h 7.0mph /  11.3km/h 90% 0.00in /  0mm 0.00 W/m2
23:14 11.3 °F /  -11.5 °C 8.9 °F /  -12.8 °C 30.40in /  1029.3hPa NNE 5.0mph /  8km/h 9.0mph /  14.5km/h 90% 0.00in /  0mm 0.00 W/m2
23:19 11.3 °F /  -11.5 °C 8.9 °F /  -12.8 °C 30.40in /  1029.3hPa North 7.0mph /  11.3km/h 9.0mph /  14.5km/h 90% 0.00in /  0mm 0.00 W/m2
23:24 11.3 °F /  -11.5 °C 8.9 °F /  -12.8 °C 30.40in /  1029.3hPa North 6.0mph /  9.7km/h 9.0mph /  14.5km/h 90% 0.00in /  0mm 0.00 W/m2
23:29 11.3 °F /  -11.5 °C 8.9 °F /  -12.8 °C 30.40in /  1029.3hPa North 5.0mph /  8km/h 8.0mph /  12.9km/h 90% 0.00in /  0mm 0.00 W/m2
23:34 11.3 °F /  -11.5 °C 8.9 °F /  -12.8 °C 30.40in /  1029.3hPa North 7.0mph /  11.3km/h 9.0mph /  14.5km/h 90% 0.00in /  0mm 0.00 W/m2
23:39 11.4 °F /  -11.4 °C 9.0 °F /  -12.8 °C 30.40in /  1029.3hPa North 7.0mph /  11.3km/h 9.0mph /  14.5km/h 90% 0.00in /  0mm 0.00 W/m2
23:44 11.4 °F /  -11.4 °C 9.0 °F /  -12.8 °C 30.40in /  1029.3hPa North 5.0mph /  8km/h 8.0mph /  12.9km/h 90% 0.00in /  0mm 0.00 W/m2
23:49 11.4 °F /  -11.4 °C 9.0 °F /  -12.8 °C 30.40in /  1029.3hPa North 7.0mph /  11.3km/h 9.0mph /  14.5km/h 90% 0.00in /  0mm 0.00 W/m2
23:54 11.4 °F /  -11.4 °C 9.0 °F /  -12.8 °C 30.40in /  1029.3hPa North 5.0mph /  8km/h 9.0mph /  14.5km/h 90% 0.00in /  0mm 0.00 W/m2
23:59 11.4 °F /  -11.4 °C 9.0 °F /  -12.8 °C 30.40in /  1029.3hPa North 6.0mph /  9.7km/h 9.0mph /  14.5km/h 90% 0.00in /  0mm 0.00 W/m2
Bismarck, North Dakota, USA
Compliments of Weather Underground - 4 mb